createdAt,value
2022-09-28T00:00:46.373Z,20
2022-09-28T00:01:46.360Z,20
2022-09-28T00:02:46.358Z,20
2022-09-28T00:03:46.355Z,20
2022-09-28T00:04:46.338Z,20
2022-09-28T00:05:46.317Z,20
2022-09-28T00:06:46.306Z,20
2022-09-28T00:07:46.297Z,20
2022-09-28T00:08:46.308Z,20
2022-09-28T00:09:46.467Z,20
2022-09-28T00:10:46.264Z,20
2022-09-28T00:11:46.253Z,20
2022-09-28T00:12:46.245Z,20
2022-09-28T00:13:46.234Z,20
2022-09-28T00:14:46.226Z,20
2022-09-28T00:15:46.209Z,20
2022-09-28T00:16:46.212Z,20
2022-09-28T00:17:46.220Z,20
2022-09-28T00:18:46.177Z,20
2022-09-28T00:19:46.186Z,20
2022-09-28T00:20:46.156Z,20
2022-09-28T00:21:46.205Z,20
2022-09-28T00:22:46.140Z,20
2022-09-28T00:23:46.131Z,20
2022-09-28T00:24:46.125Z,20
2022-09-28T00:25:46.108Z,20
2022-09-28T00:26:46.100Z,20
2022-09-28T00:27:46.088Z,20
2022-09-28T00:28:46.084Z,20
2022-09-28T00:29:46.071Z,20
2022-09-28T00:30:46.088Z,20
2022-09-28T00:31:46.061Z,20
2022-09-28T00:32:46.057Z,20
2022-09-28T00:33:46.030Z,20
2022-09-28T00:34:46.036Z,20
2022-09-28T00:35:46.022Z,20
2022-09-28T00:36:46.001Z,20
2022-09-28T00:37:45.989Z,20
2022-09-28T00:38:45.982Z,20
2022-09-28T00:39:45.976Z,20
2022-09-28T00:40:45.971Z,20
2022-09-28T00:41:45.943Z,20
2022-09-28T00:42:45.938Z,20
2022-09-28T00:43:53.691Z,20
2022-09-28T00:44:45.956Z,20
2022-09-28T00:45:45.916Z,20
2022-09-28T00:46:45.896Z,20
2022-09-28T00:47:45.915Z,20
2022-09-28T00:48:45.875Z,20
2022-09-28T00:49:45.875Z,20
2022-09-28T00:50:45.860Z,20
2022-09-28T00:51:45.851Z,20
2022-09-28T00:52:45.840Z,20
2022-09-28T00:53:45.835Z,20
2022-09-28T00:54:45.816Z,20
2022-09-28T00:55:45.808Z,20
2022-09-28T00:56:45.827Z,20
2022-09-28T00:57:45.783Z,20
2022-09-28T00:58:45.785Z,20
2022-09-28T00:59:45.777Z,20
2022-09-28T01:00:45.760Z,20
2022-09-28T01:01:45.763Z,20
2022-09-28T01:02:45.748Z,20
2022-09-28T01:03:45.734Z,20
2022-09-28T01:04:45.718Z,16
2022-09-28T01:05:45.699Z,20
2022-09-28T01:06:45.692Z,20
2022-09-28T01:07:45.683Z,20
2022-09-28T01:08:45.718Z,20
2022-09-28T01:09:45.683Z,20
2022-09-28T01:10:45.661Z,20
2022-09-28T01:11:45.648Z,20
2022-09-28T01:12:45.669Z,20
2022-09-28T01:13:45.615Z,20
2022-09-28T01:14:45.610Z,20
2022-09-28T01:15:45.617Z,20
2022-09-28T01:16:45.604Z,20
2022-09-28T01:17:45.575Z,20
2022-09-28T01:18:45.592Z,16
2022-09-28T01:19:45.593Z,20
2022-09-28T01:20:45.564Z,20
2022-09-28T01:21:45.537Z,20
2022-09-28T01:22:45.525Z,20
2022-09-28T01:23:45.515Z,20
2022-09-28T01:24:45.505Z,20
2022-09-28T01:25:45.495Z,20
2022-09-28T01:26:45.484Z,20
2022-09-28T01:27:45.503Z,20
2022-09-28T01:28:45.457Z,20
2022-09-28T01:29:45.445Z,20
2022-09-28T01:30:45.429Z,20
2022-09-28T01:31:45.431Z,20
2022-09-28T01:32:45.414Z,20
2022-09-28T01:33:45.425Z,20
2022-09-28T01:34:45.385Z,16
2022-09-28T01:35:45.367Z,20
2022-09-28T01:36:45.368Z,16
2022-09-28T01:37:45.353Z,20
2022-09-28T01:38:45.337Z,20
2022-09-28T01:39:45.339Z,16
2022-09-28T01:40:45.308Z,16
2022-09-28T01:41:45.287Z,20
2022-09-28T01:42:45.281Z,16
2022-09-28T01:43:45.268Z,16
2022-09-28T01:44:45.305Z,20
2022-09-28T01:45:45.250Z,20
2022-09-28T01:46:45.240Z,20
2022-09-28T01:47:45.225Z,16
2022-09-28T01:48:45.215Z,20
2022-09-28T01:49:45.205Z,20
2022-09-28T01:50:45.186Z,20
2022-09-28T01:51:45.174Z,20
2022-09-28T01:52:45.172Z,20
2022-09-28T01:53:45.163Z,20
2022-09-28T01:54:45.146Z,20
2022-09-28T01:55:45.139Z,20
2022-09-28T01:56:45.135Z,20
2022-09-28T01:57:45.120Z,20
2022-09-28T01:58:45.100Z,20
2022-09-28T01:59:45.093Z,20
2022-09-28T02:00:45.098Z,16
2022-09-28T02:01:45.062Z,20
2022-09-28T02:02:45.056Z,20
2022-09-28T02:03:45.046Z,20
2022-09-28T02:04:45.048Z,16
2022-09-28T02:05:45.019Z,20
2022-09-28T02:06:45.017Z,20
2022-09-28T02:07:45.021Z,20
2022-09-28T02:08:45.034Z,16
2022-09-28T02:09:45.001Z,20
2022-09-28T02:10:44.975Z,16
2022-09-28T02:11:44.963Z,16
2022-09-28T02:12:44.958Z,20
2022-09-28T02:13:44.941Z,16
2022-09-28T02:14:44.952Z,20
2022-09-28T02:15:44.940Z,16
2022-09-28T02:16:44.921Z,20
2022-09-28T02:17:44.897Z,16
2022-09-28T02:18:44.893Z,16
2022-09-28T02:19:44.891Z,16
2022-09-28T02:20:44.874Z,16
2022-09-28T02:21:44.862Z,20
2022-09-28T02:22:44.865Z,16
2022-09-28T02:23:44.834Z,20
2022-09-28T02:24:44.837Z,16
2022-09-28T02:25:44.811Z,20
2022-09-28T02:26:44.801Z,20
2022-09-28T02:27:44.790Z,16
2022-09-28T02:28:52.364Z,16
2022-09-28T02:29:52.363Z,16
2022-09-28T02:30:52.333Z,20
2022-09-28T02:31:44.757Z,20
2022-09-28T02:32:44.743Z,20
2022-09-28T02:33:52.300Z,16
2022-09-28T02:34:52.290Z,20
2022-09-28T02:35:44.713Z,16
2022-09-28T02:36:44.693Z,20
2022-09-28T02:37:52.265Z,20
2022-09-28T02:38:44.677Z,16
2022-09-28T02:39:44.690Z,16
2022-09-28T02:40:44.655Z,16
2022-09-28T02:41:44.648Z,16
2022-09-28T02:42:44.681Z,16
2022-09-28T02:43:52.219Z,16
2022-09-28T02:44:44.617Z,16
2022-09-28T02:45:52.183Z,16
2022-09-28T02:46:53.461Z,16
2022-09-28T02:47:52.154Z,16
2022-09-28T02:48:52.171Z,16
2022-09-28T02:49:44.573Z,16
2022-09-28T02:50:44.595Z,16
2022-09-28T02:51:44.563Z,16
2022-09-28T02:52:44.531Z,16
2022-09-28T02:53:44.527Z,24
2022-09-28T02:54:52.144Z,16
2022-09-28T02:55:44.515Z,16
2022-09-28T02:56:44.499Z,16
2022-09-28T02:57:44.482Z,20
2022-09-28T02:58:44.495Z,16
2022-09-28T02:59:52.090Z,16
2022-09-28T03:00:44.489Z,28
2022-09-28T03:01:44.454Z,28
2022-09-28T03:02:52.038Z,28
2022-09-28T03:03:44.432Z,28
2022-09-28T03:04:51.998Z,24
2022-09-28T03:05:44.418Z,28
2022-09-28T03:06:51.976Z,28
2022-09-28T03:07:51.974Z,28
2022-09-28T03:08:44.367Z,28
2022-09-28T03:09:53.216Z,28
2022-09-28T03:10:51.918Z,28
2022-09-28T03:11:52.956Z,28
2022-09-28T03:12:44.340Z,28
2022-09-28T03:13:44.314Z,28
2022-09-28T03:14:44.312Z,28
2022-09-28T03:15:44.301Z,28
2022-09-28T03:16:44.288Z,28
2022-09-28T03:17:44.279Z,28
2022-09-28T03:18:44.269Z,28
2022-09-28T03:19:44.268Z,28
2022-09-28T03:20:44.241Z,24
2022-09-28T03:21:51.810Z,28
2022-09-28T03:22:44.225Z,28
2022-09-28T03:23:44.234Z,28
2022-09-28T03:24:44.202Z,28
2022-09-28T03:25:51.773Z,28
2022-09-28T03:26:44.179Z,28
2022-09-28T03:27:44.176Z,28
2022-09-28T03:28:44.159Z,28
2022-09-28T03:29:44.244Z,28
2022-09-28T03:30:44.140Z,28
2022-09-28T03:31:44.153Z,28
2022-09-28T03:32:44.122Z,28
2022-09-28T03:33:44.103Z,24
2022-09-28T03:34:44.099Z,28
2022-09-28T03:35:44.089Z,24
2022-09-28T03:36:44.110Z,28
2022-09-28T03:37:44.074Z,24
2022-09-28T03:38:44.064Z,28
2022-09-28T03:39:44.047Z,28
2022-09-28T03:40:44.046Z,28
2022-09-28T03:41:44.024Z,28
2022-09-28T03:42:44.038Z,28
2022-09-28T03:43:44.016Z,28
2022-09-28T03:44:44.004Z,28
2022-09-28T03:45:43.992Z,28
2022-09-28T03:46:43.971Z,28
2022-09-28T03:47:43.971Z,28
2022-09-28T03:48:43.948Z,28
2022-09-28T03:49:43.947Z,28
2022-09-28T03:50:43.939Z,28
2022-09-28T03:51:43.920Z,28
2022-09-28T03:52:43.912Z,28
2022-09-28T03:53:43.904Z,28
2022-09-28T03:54:43.893Z,28
2022-09-28T03:55:43.879Z,28
2022-09-28T03:56:43.870Z,28
2022-09-28T03:57:43.856Z,28
2022-09-28T03:58:43.845Z,28
2022-09-28T03:59:43.849Z,28
2022-09-28T04:00:43.841Z,28
2022-09-28T04:01:43.845Z,28
2022-09-28T04:02:43.809Z,28
2022-09-28T04:03:43.804Z,28
2022-09-28T04:04:43.796Z,28
2022-09-28T04:05:43.783Z,28
2022-09-28T04:06:43.787Z,28
2022-09-28T04:07:43.768Z,28
2022-09-28T04:08:43.761Z,28
2022-09-28T04:09:43.742Z,28
2022-09-28T04:10:43.749Z,28
2022-09-28T04:11:43.716Z,28
2022-09-28T04:12:43.712Z,28
2022-09-28T04:13:43.711Z,28
2022-09-28T04:14:43.677Z,28
2022-09-28T04:15:43.669Z,28
2022-09-28T04:16:43.660Z,32
2022-09-28T04:17:43.647Z,24
2022-09-28T04:18:43.649Z,28
2022-09-28T04:19:43.644Z,28
2022-09-28T04:20:43.620Z,24
2022-09-28T04:21:43.606Z,24
2022-09-28T04:22:43.595Z,28
2022-09-28T04:23:43.585Z,28
2022-09-28T04:24:43.866Z,32
2022-09-28T04:25:43.577Z,24
2022-09-28T04:26:43.552Z,28
2022-09-28T04:27:43.544Z,28
2022-09-28T04:28:43.540Z,28
2022-09-28T04:29:43.527Z,24
2022-09-28T04:30:43.546Z,24
2022-09-28T04:31:43.521Z,24
2022-09-28T04:32:43.491Z,24
2022-09-28T04:33:43.484Z,24
2022-09-28T04:34:43.482Z,24
2022-09-28T04:35:43.514Z,24
2022-09-28T04:36:43.448Z,24
2022-09-28T04:37:43.446Z,24
2022-09-28T04:38:43.428Z,24
2022-09-28T04:39:43.417Z,24
2022-09-28T04:40:43.407Z,24
2022-09-28T04:41:43.399Z,24
2022-09-28T04:42:43.388Z,24
2022-09-28T04:43:43.385Z,24
2022-09-28T04:44:43.367Z,24
2022-09-28T04:45:43.354Z,24
2022-09-28T04:46:43.350Z,24
2022-09-28T04:47:43.336Z,24
2022-09-28T04:48:43.328Z,24
2022-09-28T04:49:43.325Z,24
2022-09-28T04:50:43.328Z,24
2022-09-28T04:51:43.307Z,24
2022-09-28T04:52:43.285Z,24
2022-09-28T04:53:43.285Z,24
2022-09-28T04:54:43.273Z,28
2022-09-28T04:55:43.253Z,28
2022-09-28T04:56:43.241Z,28
2022-09-28T04:57:43.233Z,28
2022-09-28T04:58:43.222Z,28
2022-09-28T04:59:43.228Z,24
2022-09-28T05:00:43.203Z,24
2022-09-28T05:01:43.189Z,28
2022-09-28T05:02:43.190Z,28
2022-09-28T05:03:43.187Z,28
2022-09-28T05:04:43.174Z,28
2022-09-28T05:05:43.155Z,32
2022-09-28T05:06:43.140Z,28
2022-09-28T05:07:43.129Z,28
2022-09-28T05:08:43.114Z,32
2022-09-28T05:09:43.109Z,32
2022-09-28T05:10:43.098Z,36
2022-09-28T05:11:43.083Z,28
2022-09-28T05:12:43.078Z,28
2022-09-28T05:13:43.067Z,32
2022-09-28T05:14:43.052Z,32
2022-09-28T05:15:43.047Z,40
2022-09-28T05:16:43.035Z,40
2022-09-28T05:17:43.029Z,48
2022-09-28T05:18:43.015Z,52
2022-09-28T05:19:43.004Z,52
2022-09-28T05:20:42.993Z,56
2022-09-28T05:21:42.983Z,64
2022-09-28T05:22:42.971Z,68
2022-09-28T05:23:42.961Z,72
2022-09-28T05:24:42.951Z,76
2022-09-28T05:25:42.944Z,68
2022-09-28T05:26:42.936Z,76
2022-09-28T05:27:42.917Z,84
2022-09-28T05:28:42.907Z,88
2022-09-28T05:29:42.899Z,92
2022-09-28T05:30:42.907Z,100
2022-09-28T05:31:42.902Z,108
2022-09-28T05:32:42.867Z,132
2022-09-28T05:33:42.860Z,124
2022-09-28T05:34:42.843Z,124
2022-09-28T05:35:42.836Z,124
2022-09-28T05:36:42.832Z,132
2022-09-28T05:37:42.807Z,136
2022-09-28T05:38:42.813Z,144
2022-09-28T05:39:42.799Z,144
2022-09-28T05:40:42.822Z,144
2022-09-28T05:41:42.780Z,160
2022-09-28T05:42:42.785Z,176
2022-09-28T05:43:42.749Z,184
2022-09-28T05:44:42.755Z,180
2022-09-28T05:45:42.727Z,188
2022-09-28T05:46:42.755Z,176
2022-09-28T05:47:42.713Z,192
2022-09-28T05:48:42.708Z,192
2022-09-28T05:49:42.687Z,176
2022-09-28T05:50:42.672Z,188
2022-09-28T05:51:42.662Z,192
2022-09-28T05:52:42.654Z,204
2022-09-28T05:53:42.640Z,220
2022-09-28T05:54:42.628Z,204
2022-09-28T05:55:42.623Z,196
2022-09-28T05:56:42.617Z,216
2022-09-28T05:57:42.599Z,196
2022-09-28T05:58:42.589Z,200
2022-09-28T05:59:42.590Z,200
2022-09-28T06:00:42.568Z,220
2022-09-28T06:01:42.564Z,236
2022-09-28T06:02:42.548Z,280
2022-09-28T06:03:42.537Z,292
2022-09-28T06:04:42.527Z,276
2022-09-28T06:05:42.519Z,312
2022-09-28T06:06:42.504Z,332
2022-09-28T06:07:42.496Z,340
2022-09-28T06:08:42.481Z,348
2022-09-28T06:09:42.477Z,380
2022-09-28T06:10:42.465Z,372
2022-09-28T06:11:42.457Z,400
2022-09-28T06:12:42.443Z,396
2022-09-28T06:13:42.432Z,436
2022-09-28T06:14:42.425Z,492
2022-09-28T06:15:42.447Z,552
2022-09-28T06:16:42.407Z,636
2022-09-28T06:17:42.420Z,728
2022-09-28T06:18:42.383Z,788
2022-09-28T06:19:42.367Z,788
2022-09-28T06:20:42.362Z,804
2022-09-28T06:21:42.347Z,828
2022-09-28T06:22:42.336Z,816
2022-09-28T06:23:42.339Z,924
2022-09-28T06:24:42.335Z,940
2022-09-28T06:25:42.309Z,1024
2022-09-28T06:26:42.295Z,1048
2022-09-28T06:27:42.284Z,1016
2022-09-28T06:28:42.276Z,1068
2022-09-28T06:29:42.260Z,1144
2022-09-28T06:30:42.260Z,1220
2022-09-28T06:31:42.245Z,1292
2022-09-28T06:32:42.236Z,1324
2022-09-28T06:33:42.219Z,1344
2022-09-28T06:34:42.221Z,1332
2022-09-28T06:35:42.217Z,1308
2022-09-28T06:36:42.210Z,1380
2022-09-28T06:37:42.178Z,1460
2022-09-28T06:38:42.183Z,1476
2022-09-28T06:39:42.159Z,1476
2022-09-28T06:40:42.145Z,1484
2022-09-28T06:41:42.137Z,1500
2022-09-28T06:42:42.141Z,1496
2022-09-28T06:43:42.120Z,1536
2022-09-28T06:44:42.107Z,1516
2022-09-28T06:45:42.095Z,1508
2022-09-28T06:46:42.080Z,1516
2022-09-28T06:47:42.074Z,1508
2022-09-28T06:48:42.066Z,1492
2022-09-28T06:49:42.055Z,1440
2022-09-28T06:50:42.043Z,1380
2022-09-28T06:51:42.033Z,1348
2022-09-28T06:52:42.023Z,1332
2022-09-28T06:53:42.014Z,1336
2022-09-28T06:54:42.007Z,1348
2022-09-28T06:55:42.017Z,1388
2022-09-28T06:56:41.984Z,1412
2022-09-28T06:57:41.974Z,1416
2022-09-28T06:58:41.966Z,1424
2022-09-28T06:59:41.948Z,1468
2022-09-28T07:00:41.938Z,1500
2022-09-28T07:01:41.931Z,1600
2022-09-28T07:02:41.920Z,1692
2022-09-28T07:03:41.916Z,1732
2022-09-28T07:04:41.895Z,1752
2022-09-28T07:05:41.886Z,1888
2022-09-28T07:06:41.881Z,1940
2022-09-28T07:07:41.886Z,1884
2022-09-28T07:08:41.858Z,1868
2022-09-28T07:09:41.844Z,1768
2022-09-28T07:10:41.860Z,1772
2022-09-28T07:11:41.832Z,1720
2022-09-28T07:12:41.819Z,1672
2022-09-28T07:13:41.805Z,1552
2022-09-28T07:14:41.806Z,1428
2022-09-28T07:15:41.784Z,1328
2022-09-28T07:17:41.770Z,1320
2022-09-28T07:18:41.752Z,1332
2022-09-28T07:19:41.751Z,1336
2022-09-28T07:20:41.734Z,1428
2022-09-28T07:21:41.727Z,1348
2022-09-28T07:22:41.711Z,1300
2022-09-28T07:23:41.709Z,1232
2022-09-28T07:24:41.701Z,1184
2022-09-28T07:25:41.692Z,1300
2022-09-28T07:26:41.670Z,1384
2022-09-28T07:27:41.668Z,1456
2022-09-28T07:28:41.652Z,1536
2022-09-28T07:29:41.645Z,1584
2022-09-28T07:30:41.641Z,1624
2022-09-28T07:31:41.616Z,1748
2022-09-28T07:32:41.609Z,1704
2022-09-28T07:33:41.603Z,1812
2022-09-28T07:34:41.594Z,1824
2022-09-28T07:35:41.584Z,1856
2022-09-28T07:36:41.595Z,1996
2022-09-28T07:37:41.582Z,2056
2022-09-28T07:38:41.550Z,2048
2022-09-28T07:39:41.543Z,2052
2022-09-28T07:40:41.524Z,2080
2022-09-28T07:41:41.522Z,2212
2022-09-28T07:42:41.504Z,2128
2022-09-28T07:43:41.498Z,2108
2022-09-28T07:44:41.590Z,2060
2022-09-28T07:45:41.552Z,1984
2022-09-28T07:46:41.481Z,2028
2022-09-28T07:47:41.466Z,1904
2022-09-28T07:48:41.443Z,1872
2022-09-28T07:49:41.436Z,2068
2022-09-28T07:50:41.423Z,2284
2022-09-28T07:51:41.409Z,2812
2022-09-28T07:52:41.402Z,2852
2022-09-28T07:53:41.397Z,2856
2022-09-28T07:54:41.382Z,2992
2022-09-28T07:55:41.367Z,3060
2022-09-28T07:56:41.371Z,2776
2022-09-28T07:57:41.368Z,2284
2022-09-28T07:58:41.348Z,2296
2022-09-28T07:59:41.326Z,2356
2022-09-28T08:00:41.317Z,2300
2022-09-28T08:01:41.306Z,2216
2022-09-28T08:02:41.300Z,2164
2022-09-28T08:03:41.293Z,2144
2022-09-28T08:04:41.278Z,2140
2022-09-28T08:05:41.265Z,2144
2022-09-28T08:06:41.253Z,2196
2022-09-28T08:07:41.243Z,2188
2022-09-28T08:08:41.236Z,2240
2022-09-28T08:09:41.220Z,2172
2022-09-28T08:10:41.214Z,2236
2022-09-28T08:11:41.226Z,2436
2022-09-28T08:12:41.193Z,2280
2022-09-28T08:13:41.178Z,2300
2022-09-28T08:14:41.173Z,2240
2022-09-28T08:15:41.162Z,2272
2022-09-28T08:16:41.153Z,2436
2022-09-28T08:17:41.147Z,2672
2022-09-28T08:18:41.132Z,2784
2022-09-28T08:19:41.116Z,2820
2022-09-28T08:20:41.120Z,3256
2022-09-28T08:21:41.108Z,3624
2022-09-28T08:22:41.088Z,3620
2022-09-28T08:23:41.119Z,3656
2022-09-28T08:24:41.068Z,3504
2022-09-28T08:25:41.062Z,3788
2022-09-28T08:26:41.049Z,4016
2022-09-28T08:27:41.042Z,3860
2022-09-28T08:28:41.026Z,3516
2022-09-28T08:29:41.024Z,3676
2022-09-28T08:30:41.003Z,4012
2022-09-28T08:31:40.995Z,4196
2022-09-28T08:32:40.987Z,3980
2022-09-28T08:33:40.976Z,3492
2022-09-28T08:34:40.967Z,3360
2022-09-28T08:35:40.950Z,3488
2022-09-28T08:36:40.950Z,3536
2022-09-28T08:37:40.928Z,3512
2022-09-28T08:38:40.923Z,3420
2022-09-28T08:39:40.967Z,3208
2022-09-28T08:40:40.905Z,3112
2022-09-28T08:41:40.916Z,3232
2022-09-28T08:42:40.878Z,3344
2022-09-28T08:43:40.873Z,3560
2022-09-28T08:44:40.854Z,3972
2022-09-28T08:45:40.850Z,4376
2022-09-28T08:46:40.838Z,4392
2022-09-28T08:47:40.832Z,4212
2022-09-28T08:48:40.813Z,4224
2022-09-28T08:49:40.823Z,4412
2022-09-28T08:50:40.890Z,4264
2022-09-28T08:51:40.780Z,3924
2022-09-28T08:52:40.780Z,3504
2022-09-28T08:53:40.771Z,3128
2022-09-28T08:54:40.747Z,2680
2022-09-28T08:55:40.733Z,2388
2022-09-28T08:56:40.728Z,2152
2022-09-28T08:57:40.713Z,2036
2022-09-28T08:58:40.715Z,1876
2022-09-28T08:59:40.724Z,1788
2022-09-28T09:00:40.713Z,1620
2022-09-28T09:01:40.671Z,1440
2022-09-28T09:02:40.660Z,1544
2022-09-28T09:03:40.650Z,1876
2022-09-28T09:04:40.639Z,1956
2022-09-28T09:05:40.631Z,1840
2022-09-28T09:06:40.617Z,1744
2022-09-28T09:07:40.608Z,1532
2022-09-28T09:08:40.612Z,1548
2022-09-28T09:09:40.793Z,1752
2022-09-28T09:10:40.652Z,2092
2022-09-28T09:11:40.564Z,2076
2022-09-28T09:12:40.583Z,2104
2022-09-28T09:13:40.543Z,2236
2022-09-28T09:14:40.528Z,2264
2022-09-28T09:15:40.517Z,2292
2022-09-28T09:16:40.508Z,2264
2022-09-28T09:17:40.500Z,2292
2022-09-28T09:18:40.492Z,2412
2022-09-28T09:19:40.478Z,2540
2022-09-28T09:20:40.487Z,2752
2022-09-28T09:21:40.455Z,3180
2022-09-28T09:22:40.444Z,3612
2022-09-28T09:23:40.430Z,3728
2022-09-28T09:24:40.422Z,3724
2022-09-28T09:25:40.437Z,3696
2022-09-28T09:26:40.424Z,3328
2022-09-28T09:27:40.413Z,2720
2022-09-28T09:28:40.377Z,2720
2022-09-28T09:29:40.370Z,2388
2022-09-28T09:30:40.357Z,2212
2022-09-28T09:31:40.350Z,1820
2022-09-28T09:32:40.351Z,1396
2022-09-28T09:33:40.589Z,1064
2022-09-28T09:34:40.323Z,1100
2022-09-28T09:35:40.304Z,1068
2022-09-28T09:36:40.296Z,1076
2022-09-28T09:37:40.284Z,1048
2022-09-28T09:38:40.275Z,976
2022-09-28T09:39:47.917Z,1052
2022-09-28T09:40:40.283Z,1124
2022-09-28T09:41:40.243Z,1224
2022-09-28T09:42:40.244Z,1264
2022-09-28T09:43:40.225Z,1252
2022-09-28T09:44:40.220Z,1192
2022-09-28T09:45:40.215Z,1216
2022-09-28T09:46:40.284Z,1332
2022-09-28T09:47:40.177Z,1520
2022-09-28T09:48:40.166Z,1692
2022-09-28T09:49:40.167Z,1852
2022-09-28T09:50:40.154Z,2088
2022-09-28T09:51:40.137Z,2376
2022-09-28T09:52:40.125Z,2764
2022-09-28T09:53:40.141Z,3348
2022-09-28T09:54:40.106Z,4028
2022-09-28T09:55:40.102Z,4688
2022-09-28T09:56:40.087Z,4904
2022-09-28T09:57:40.085Z,3708
2022-09-28T09:58:40.064Z,3000
2022-09-28T09:59:40.068Z,2456
2022-09-28T10:00:40.038Z,2256
2022-09-28T10:01:40.033Z,2004
2022-09-28T10:02:40.015Z,1884
2022-09-28T10:03:40.010Z,1736
2022-09-28T10:04:39.998Z,1744
2022-09-28T10:05:40.012Z,1884
2022-09-28T10:06:39.974Z,2024
2022-09-28T10:07:39.974Z,2100
2022-09-28T10:08:39.962Z,2128
2022-09-28T10:09:39.951Z,2056
2022-09-28T10:10:39.935Z,1980
2022-09-28T10:11:39.949Z,2036
2022-09-28T10:12:39.916Z,2116
2022-09-28T10:13:39.907Z,2152
2022-09-28T10:14:39.891Z,2208
2022-09-28T10:15:40.747Z,2336
2022-09-28T10:16:39.868Z,2440
2022-09-28T10:17:39.860Z,2544
2022-09-28T10:18:39.852Z,2692
2022-09-28T10:19:39.850Z,2804
2022-09-28T10:20:39.823Z,2816
2022-09-28T10:21:39.820Z,2596
2022-09-28T10:22:39.810Z,2520
2022-09-28T10:23:39.801Z,2612
2022-09-28T10:24:39.780Z,2756
2022-09-28T10:25:39.777Z,2900
2022-09-28T10:26:39.797Z,2984
2022-09-28T10:27:39.792Z,3068
2022-09-28T10:28:39.741Z,3196
2022-09-28T10:29:39.731Z,3224
2022-09-28T10:30:39.728Z,3236
2022-09-28T10:31:39.712Z,3104
2022-09-28T10:32:39.699Z,2800
2022-09-28T10:33:39.689Z,2344
2022-09-28T10:34:39.684Z,1844
2022-09-28T10:35:39.662Z,1584
2022-09-28T10:36:39.661Z,1524
2022-09-28T10:37:39.659Z,1740
2022-09-28T10:38:39.627Z,1976
2022-09-28T10:39:39.616Z,2164
2022-09-28T10:40:39.611Z,2284
2022-09-28T10:41:39.600Z,2436
2022-09-28T10:42:39.598Z,2652
2022-09-28T10:43:39.592Z,2952
2022-09-28T10:44:39.572Z,3100
2022-09-28T10:45:39.556Z,3216
2022-09-28T10:46:39.545Z,3356
2022-09-28T10:47:39.530Z,3512
2022-09-28T10:48:39.529Z,3696
2022-09-28T10:49:39.511Z,3976
2022-09-28T10:50:39.504Z,4288
2022-09-28T10:51:39.494Z,4468
2022-09-28T10:52:39.507Z,4464
2022-09-28T10:53:39.475Z,4868
2022-09-28T10:54:39.473Z,5372
2022-09-28T10:55:39.489Z,5536
2022-09-28T10:56:39.458Z,5516
2022-09-28T10:57:40.009Z,5388
2022-09-28T10:58:39.435Z,5232
2022-09-28T10:59:39.417Z,5236
2022-09-28T11:00:39.402Z,5600
2022-09-28T11:01:39.400Z,6640
2022-09-28T11:02:39.374Z,7728
2022-09-28T11:03:39.365Z,8592
2022-09-28T11:04:39.390Z,12012
2022-09-28T11:05:39.352Z,19456
2022-09-28T11:06:39.348Z,11888
2022-09-28T11:07:39.321Z,11768
2022-09-28T11:08:39.311Z,13112
2022-09-28T11:09:39.310Z,16116
2022-09-28T11:10:39.318Z,9768
2022-09-28T11:11:39.289Z,7496
2022-09-28T11:12:39.285Z,6568
2022-09-28T11:13:39.277Z,6068
2022-09-28T11:14:39.251Z,5728
2022-09-28T11:15:39.274Z,5536
2022-09-28T11:16:39.252Z,5520
2022-09-28T11:17:39.225Z,5564
2022-09-28T11:18:39.232Z,5636
2022-09-28T11:19:39.189Z,5672
2022-09-28T11:20:39.187Z,5680
2022-09-28T11:21:39.206Z,5836
2022-09-28T11:22:39.171Z,6092
2022-09-28T11:23:39.155Z,6300
2022-09-28T11:24:39.284Z,6396
2022-09-28T11:25:39.131Z,6216
2022-09-28T11:26:39.131Z,5836
2022-09-28T11:27:39.142Z,5536
2022-09-28T11:28:39.099Z,5316
2022-09-28T11:29:39.085Z,5124
2022-09-28T11:30:39.078Z,4948
2022-09-28T11:31:39.073Z,4848
2022-09-28T11:32:39.060Z,4768
2022-09-28T11:33:39.043Z,4664
2022-09-28T11:34:39.040Z,4584
2022-09-28T11:35:39.025Z,4588
2022-09-28T11:36:39.020Z,4592
2022-09-28T11:37:39.002Z,4696
2022-09-28T11:38:38.998Z,4772
2022-09-28T11:39:39.004Z,4524
2022-09-28T11:40:38.971Z,4036
2022-09-28T11:41:38.966Z,3724
2022-09-28T11:42:38.949Z,3552
2022-09-28T11:43:38.941Z,3352
2022-09-28T11:44:38.933Z,3112
2022-09-28T11:45:38.919Z,3000
2022-09-28T11:46:38.910Z,2952
2022-09-28T11:47:38.898Z,2924
2022-09-28T11:48:38.887Z,2896
2022-09-28T11:49:38.884Z,2912
2022-09-28T11:50:38.914Z,3012
2022-09-28T11:51:38.858Z,3004
2022-09-28T11:52:38.844Z,2920
2022-09-28T11:53:38.836Z,2840
2022-09-28T11:54:38.820Z,2748
2022-09-28T11:55:38.817Z,2608
2022-09-28T11:56:38.806Z,2464
2022-09-28T11:57:38.791Z,2380
2022-09-28T11:58:38.777Z,2360
2022-09-28T11:59:38.769Z,2404
2022-09-28T12:00:38.766Z,2476
2022-09-28T12:01:38.756Z,2528
2022-09-28T12:02:38.741Z,2620
2022-09-28T12:03:38.729Z,2740
2022-09-28T12:04:38.734Z,2944
2022-09-28T12:05:38.708Z,3144
2022-09-28T12:06:38.698Z,3352
2022-09-28T12:07:38.684Z,3496
2022-09-28T12:08:38.671Z,3672
2022-09-28T12:09:38.670Z,3948
2022-09-28T12:10:38.654Z,4572
2022-09-28T12:11:38.638Z,5064
2022-09-28T12:12:38.631Z,5580
2022-09-28T12:13:38.619Z,6020
2022-09-28T12:14:38.608Z,6732
2022-09-28T12:15:38.599Z,7972
2022-09-28T12:16:38.595Z,9232
2022-09-28T12:17:38.573Z,10016
2022-09-28T12:18:38.575Z,9924
2022-09-28T12:19:38.557Z,10228
2022-09-28T12:20:38.545Z,10504
2022-09-28T12:21:38.533Z,10272
2022-09-28T12:22:38.523Z,9776
2022-09-28T12:23:38.519Z,9584
2022-09-28T12:24:38.510Z,10632
2022-09-28T12:25:38.498Z,11556
2022-09-28T12:26:38.486Z,17824
2022-09-28T12:27:38.481Z,21344
2022-09-28T12:28:38.459Z,11400
2022-09-28T12:29:38.468Z,8860
2022-09-28T12:30:38.447Z,6128
2022-09-28T12:31:38.441Z,4752
2022-09-28T12:32:38.414Z,3996
2022-09-28T12:33:38.413Z,3664
2022-09-28T12:34:38.393Z,3592
2022-09-28T12:35:38.382Z,3676
2022-09-28T12:36:38.376Z,3812
2022-09-28T12:37:38.404Z,3992
2022-09-28T12:38:38.364Z,4164
2022-09-28T12:39:38.337Z,4332
2022-09-28T12:40:38.337Z,4516
2022-09-28T12:41:38.326Z,4736
2022-09-28T12:42:38.319Z,4988
2022-09-28T12:43:38.320Z,5236
2022-09-28T12:44:38.291Z,5456
2022-09-28T12:45:38.285Z,5868
2022-09-28T12:46:38.275Z,5836
2022-09-28T12:47:38.266Z,6020
2022-09-28T12:48:38.246Z,6252
2022-09-28T12:50:38.368Z,6616
2022-09-28T12:51:38.216Z,6708
2022-09-28T12:52:38.207Z,6672
2022-09-28T12:53:38.193Z,6624
2022-09-28T12:54:38.182Z,6632
2022-09-28T12:55:38.181Z,6732
2022-09-28T12:56:38.164Z,7080
2022-09-28T12:57:38.156Z,7924
2022-09-28T12:58:38.157Z,9112
2022-09-28T12:59:38.143Z,10248
2022-09-28T13:00:38.135Z,11188
2022-09-28T13:01:38.122Z,12556
2022-09-28T13:02:38.117Z,13704
2022-09-28T13:03:38.104Z,13636
2022-09-28T13:04:38.086Z,13408
2022-09-28T13:05:38.075Z,13124
2022-09-28T13:06:38.061Z,13372
2022-09-28T13:07:38.083Z,12904
2022-09-28T13:08:38.045Z,11320
2022-09-28T13:09:38.024Z,9268
2022-09-28T13:10:38.014Z,8444
2022-09-28T13:11:38.024Z,7796
2022-09-28T13:12:37.992Z,7548
2022-09-28T13:13:37.990Z,7548
2022-09-28T13:14:37.971Z,7692
2022-09-28T13:15:37.969Z,7844
2022-09-28T13:16:37.954Z,7884
2022-09-28T13:17:37.952Z,7880
2022-09-28T13:18:37.961Z,8168
2022-09-28T13:19:37.921Z,8976
2022-09-28T13:20:37.913Z,10020
2022-09-28T13:21:37.899Z,10736
2022-09-28T13:22:37.899Z,11060
2022-09-28T13:23:37.876Z,11672
2022-09-28T13:24:37.879Z,12316
2022-09-28T13:25:37.865Z,13468
2022-09-28T13:26:37.854Z,13316
2022-09-28T13:27:37.888Z,14172
2022-09-28T13:28:37.844Z,13816
2022-09-28T13:30:37.823Z,12792
2022-09-28T13:31:37.799Z,10308
2022-09-28T13:32:37.780Z,8584
2022-09-28T13:33:37.781Z,7124
2022-09-28T13:34:37.761Z,5720
2022-09-28T13:35:37.751Z,5148
2022-09-28T13:36:37.739Z,4732
2022-09-28T13:37:37.727Z,4392
2022-09-28T13:38:37.731Z,4896
2022-09-28T13:39:37.734Z,6948
2022-09-28T13:40:37.699Z,7972
2022-09-28T13:41:37.696Z,7400
2022-09-28T13:42:37.690Z,7628
2022-09-28T13:43:37.677Z,8500
2022-09-28T13:44:37.657Z,9364